This is the latest recevied weather packets stored in our database for station/object GOLDWX. If no packets are shown the sender has not sent any weather packets the latest 10 day(s).
| Time | Temp. | Humidity | Pressure | Rain* | Wind** | Luminosity | Snow |
|---|---|---|---|---|---|---|---|
| 1777787347 | 15° C | 22% | 1014.3 hPa | 0 mm | - | - | - |
| 1777787046 | 15° C | 22% | 1014.2 hPa | 0 mm | - | - | - |
| 1777786143 | 15° C | 22% | 1014.2 hPa | 0 mm | - | - | - |
| 1777785542 | 15° C | 23% | 1014.3 hPa | 0 mm | - | - | - |
| 1777785242 | 15° C | 23% | 1014.2 hPa | 0 mm | - | - | - |
| 1777784640 | 15° C | 22% | 1014.2 hPa | 0 mm | - | - | - |
| 1777784339 | 15° C | 22% | 1014.3 hPa | 0 mm | - | - | - |
| 1777783737 | 15° C | 22% | 1014.1 hPa | 0 mm | - | - | - |
| 1777783436 | 15° C | 22% | 1014.1 hPa | 0 mm | - | - | - |
| 1777782834 | 15° C | 22% | 1014.1 hPa | 0 mm | - | - | - |
| 1777782533 | 15.56° C | 22% | 1013.9 hPa | 0 mm | - | - | - |
| 1777781932 | 15° C | 22% | 1014 hPa | 0 mm | - | - | - |
| 1777781631 | 15° C | 22% | 1013.9 hPa | 0 mm | - | - | - |
| 1777781029 | 15.56° C | 23% | 1013.8 hPa | 0 mm | - | - | - |
| 1777780126 | 15.56° C | 23% | 1013.8 hPa | 0 mm | - | - | - |
| 1777779827 | 15.56° C | 23% | 1013.7 hPa | 0 mm | - | - | - |
| 1777779224 | 16.11° C | 22% | 1013.6 hPa | 0 mm | - | - | - |
| 1777778924 | 16.11° C | 22% | 1013.6 hPa | 0 mm | - | - | - |
| 1777778321 | 16.67° C | 21% | 1013.6 hPa | 0 mm | - | - | - |
| 1777778021 | 16.67° C | 21% | 1013.6 hPa | 0 mm | - | - | - |
| 1777777419 | 17.22° C | 21% | 1013.4 hPa | 0 mm | - | - | - |
| 1777777118 | 17.22° C | 21% | 1013.4 hPa | 0 mm | - | - | - |
| 1777776516 | 17.78° C | 20% | 1013.3 hPa | 0 mm | - | - | - |
| 1777776216 | 17.78° C | 20% | 1013.2 hPa | 0 mm | - | - | - |
| 1777775614 | 18.89° C | 19% | 1013.1 hPa | 0 mm | - | - | - |
* Rain since midnight (hover to see other rain measurements)
** Current wind speed in m/s (hover to see current wind gust speed)